• Join FlightAware (Why Join?)
  • Login
  • US Flag 
12:34AM EDT


 

Airport Tracker/Info


-or-


 

Live Flight TrackerFlight Track Log ✈ SWA1031 ✈ 05-May-2013 ✈ KSMF - KONT

Flight Track Log - Related Links

Times and Time Zones

All times are in EDT time to prevent confusion due to time zone crossing. See the SWA1031 flight status page for this flight to view local times or setup timezone preferences in your user account.

Time Position Orientation Groundspeed Altitude Reporting Facility
EDT Latitude Longitude Course Direction KTS MPH feet Rate Location/Type
02:58PM 38.6667 -121.5833 123° Southeast 180 207 1,900  Level Northern Cal TRACON
02:59PM 38.6333 -121.5167 123° Southeast 232 267 4,600 3,360 Climbing Northern Cal TRACON
03:01PM 38.5500 -121.3667 125° Southeast 284 327 11,700 3,720 Climbing Northern Cal TRACON
03:01PM 38.5314 -121.3108 113° Southeast 293 337 13,800 3,780 Climbing Oakland Center
03:02PM 38.4833 -121.2097 121° Southeast 330 380 17,700 3,360 Climbing Oakland Center
03:03PM 38.4319 -121.1022 121° Southeast 348 400 20,800 3,000 Climbing Oakland Center
03:04PM 38.3781 -120.9886 121° Southeast 369 425 23,800 2,700 Climbing Oakland Center
03:05PM 38.3208 -120.8697 122° Southeast 387 445 26,400 2,280 Climbing Oakland Center
03:06PM 38.2614 -120.7464 122° Southeast 405 466 28,500 2,040 Climbing Oakland Center
03:08PM 38.1761 -120.6500 138° Southeast 416 479 30,600 1,980 Climbing Oakland Center
03:09PM 38.0744 -120.5828 152° Southeast 412 474 32,600 1,740 Climbing Oakland Center
03:10PM 37.9694 -120.5142 153° Southeast 422 486 34,200 1,500 Climbing Oakland Center
03:11PM 37.8647 -120.4411 151° Southeast 430 495 35,700 1,680 Climbing Oakland Center
03:12PM 37.7364 -120.3553 152° Southeast 432 497 37,700 1,620 Climbing Oakland Center
03:13PM 37.6294 -120.2875 153° Southeast 432 497 39,100 960 Climbing Oakland Center
03:14PM 37.5214 -120.2161 152° Southeast 434 499 39,800 780 Climbing Oakland Center
03:15PM 37.4117 -120.1411 151° Southeast 443 510 40,700 540 Climbing Oakland Center
03:16PM 37.2969 -120.0689 153° Southeast 454 522 41,000 120 Climbing Oakland Center
03:17PM 37.1850 -119.9953 152° Southeast 455 524 41,000  Level Oakland Center
03:18PM 37.0739 -119.9217 152° Southeast 455 524 41,000  Level Oakland Center
03:19PM 36.9650 -119.8508 153° Southeast 444 511 41,000  Level Oakland Center
03:20PM 36.8522 -119.7764 152° Southeast 454 522 41,000  Level Oakland Center
03:21PM 36.7225 -119.6931 153° Southeast 441 507 41,000  Level Oakland Center
03:22PM 36.6117 -119.6200 152° Southeast 446 513 41,000  Level Oakland Center
03:23PM 36.5042 -119.5517 153° Southeast 437 503 41,000  Level Oakland Center
03:24PM 36.3994 -119.4594 145° Southeast 458 527 41,000  Level Oakland Center
03:25PM 36.2956 -119.3758 147° Southeast 447 514 41,000  Level Oakland Center
03:26PM 36.1900 -119.2908 147° Southeast 453 521 41,000  Level Oakland Center
03:27PM 36.0839 -119.2050 147° Southeast 457 526 41,000  Level Oakland Center
03:28PM 35.9800 -119.1242 148° Southeast 444 511 41,000  Level Oakland Center
03:29PM 35.8769 -119.0428 147° Southeast 438 504 41,000  Level Oakland Center
03:30PM 35.7522 -118.9417 147° Southeast 442 509 41,000  Level Oakland Center
03:31PM 35.6481 -118.8594 147° Southeast 443 510 41,000  Level Oakland Center
03:32PM 35.5456 -118.7778 147° Southeast 441 507 41,000  Level Oakland Center
03:32PM 35.5219 -118.7586 147° Southeast 442 509 41,000 -240 Level Los Angeles Center
03:33PM 35.4200 -118.6781 147° Southeast 437 503 40,700 -1,380 Descending Los Angeles Center
03:34PM 35.3208 -118.5992 147° Southeast 429 494 38,200 -2,820 Descending Los Angeles Center
03:35PM 35.1972 -118.5033 148° Southeast 434 499 34,900 -3,060 Descending Los Angeles Center
03:36PM 35.1017 -118.4283 147° Southeast 432 497 31,900 -2,640 Descending Los Angeles Center
03:38PM 35.0014 -118.3508 148° Southeast 428 493 29,500 -2,160 Descending Los Angeles Center
03:39PM 34.9058 -118.2775 148° Southeast 411 473 27,500 -1,560 Descending Los Angeles Center
03:40PM 34.8147 -118.2058 147° Southeast 397 457 26,300 -1,800 Descending Los Angeles Center
03:41PM 34.7050 -118.1225 148° Southeast 391 450 23,500 -2,520 Descending Los Angeles Center
03:42PM 34.6122 -118.0239 139° Southeast 377 434 20,700 -1,800 Descending Los Angeles Center
03:43PM 34.5622 -117.9156 119° Southeast 371 427 19,800 -900 Descending Los Angeles Center
03:44PM 34.5228 -117.8283 119° Southeast 371 427 18,900 -1,860 Descending Los Angeles Center
03:45PM 34.4544 -117.6811 119° Southeast 362 417 16,000 -2,340 Descending Los Angeles Center
03:46PM 34.4069 -117.5775 119° Southeast 354 407 14,100 -1,320 Descending Los Angeles Center
03:47PM 34.3628 -117.4775 118° Southeast 326 375 13,300 -960 Descending Los Angeles Center
03:48PM 34.3053 -117.3989 132° Southeast 288 331 12,200 -1,500 Descending Los Angeles Center
03:49PM 34.2539 -117.3469 140° Southeast 267 307 10,300 -2,040 Descending Los Angeles Center
03:50PM 34.1878 -117.3314 169° South 244 281 8,000 -2,160 Descending Los Angeles Center
03:51PM 34.1222 -117.3236 174° South 238 274 5,900 -1,980 Descending Los Angeles Center
03:52PM 34.0667 -117.3833 222° Southwest 215 247 3,800 -1,320 Descending Southern California TRACON
03:53PM 34.0500 -117.4333 248° West 206 237 3,300 -780 Descending Southern California TRACON
03:54PM 34.0500 -117.5000 270° West 167 192 2,400 -900 Descending Southern California TRACON
03:55PM 34.0500 -117.5500 270° West 130 150 1,600 -840 Descending Southern California TRACON
03:59PM 34.0500 -117.6000 270° West  Level FlightAware Approximate